Wylde Swan — PIWS — position and weather

sailwx.info

Track history (hours):
 
Tides and Currents Weather Stations Pressure Air Temp Water Temp Dewpoint Dewpoint Depression Visibility Wind Speed Wind Dir Waves Ship Positions

Wylde Swan

Last reported at 2017-May-10 17:45 UTC. Time now 2017-May-23 09:00 UTC.
Position N 27°50' W 015°22'.
Warning: this ship's position is 12 days out of date.

Length 45 m; draft 3.3 m.

Type: Sailing vessel. MMSI: 244074000.

Date/timePositionNaut miles runAvg speedWind from/ knotsBaromVisibWave heightAir tempDewpointWater temp
2017-May-10 17:45N 27°50' W 015°22'2 6.7
2017-May-10 17:30N 27°51' W 015°21'3 6.5
2017-May-10 17:00N 27°54' W 015°20'3 6.4
2017-May-10 16:30N 27°58' W 015°20'3 5.6
2017-May-10 16:00N 28°00' W 015°22'3 5.7
2017-May-10 15:30N 28°03' W 015°23'3 5.3
2017-May-10 15:00N 28°05' W 015°24'3 2.6
2017-May-10 13:55N 28°08' W 015°25'0 0.0
2017-May-10 13:22N 28°08' W 015°25'0 0.0
2017-May-10 12:52N 28°08' W 015°25'0 0.0
2017-May-10 12:28N 28°08' W 015°25'0 0.0
2017-May-10 11:58N 28°08' W 015°25'0 0.0
2017-May-10 11:28N 28°08' W 015°25'0 0.0
2017-May-10 10:58N 28°08' W 015°25'0 0.0
2017-May-10 10:28N 28°08' W 015°25'0 0.0
2017-May-10 09:58N 28°08' W 015°25'0 0.0
2017-May-10 09:28N 28°08' W 015°25'0 0.0
2017-May-10 08:58N 28°08' W 015°25'0 0.0
2017-May-09 20:58N 28°08' W 015°25'0 0.0
2017-May-09 20:28N 28°08' W 015°25'0 0.0
2017-May-09 19:58N 28°08' W 015°25'0 0.0
2017-May-09 19:28N 28°08' W 015°25'0 0.0
2017-May-09 18:58N 28°08' W 015°25'0 0.0
2017-May-09 18:28N 28°08' W 015°25'0 0.0
2017-May-09 17:58N 28°08' W 015°25'0 0.0
2017-May-09 17:28N 28°08' W 015°25'0 0.0
2017-May-09 16:46N 28°08' W 015°26'0 0.0
2017-May-09 16:28N 28°08' W 015°25'0 0.0
2017-May-09 15:58N 28°08' W 015°25'0 0.0
2017-May-09 15:28N 28°08' W 015°25'0 0.0
2017-May-09 14:49N 28°08' W 015°25'0 0.0
2017-May-09 13:34N 28°08' W 015°25'0 0.0
2017-May-09 13:22N 28°08' W 015°25'0 0.0
2017-May-09 12:52N 28°08' W 015°25'0 0.0
2017-May-09 12:22N 28°08' W 015°25'0 0.0
2017-May-09 11:52N 28°08' W 015°25'0 0.0
2017-May-09 11:22N 28°08' W 015°25'0 0.0
2017-May-09 10:55N 28°08' W 015°25'0 0.0
2017-May-09 10:22N 28°08' W 015°25'0 0.0
2017-May-09 09:55N 28°08' W 015°26'0 0.0
2017-May-09 09:25N 28°08' W 015°26'0 0.0
2017-May-09 08:55N 28°08' W 015°25'0 0.0
2017-May-09 08:25N 28°08' W 015°25'0 0.0
2017-May-09 07:58N 28°08' W 015°25'0 0.0
2017-May-09 07:28N 28°08' W 015°25'0 0.0
2017-May-09 06:58N 28°08' W 015°25'0 0.0
2017-May-09 06:25N 28°08' W 015°25'0 0.0
2017-May-09 05:58N 28°08' W 015°25'0 0.0
2017-May-09 05:25N 28°08' W 015°25'0 0.0
2017-May-09 04:58N 28°08' W 015°25'0 0.0
2017-May-09 04:28N 28°08' W 015°25'0 0.0
2017-May-09 03:58N 28°08' W 015°25'0 0.0
2017-May-09 03:28N 28°08' W 015°25'0 0.0
2017-May-09 02:46N 28°08' W 015°25'0 0.0
2017-May-09 02:28N 28°08' W 015°25'0 0.0
2017-May-09 01:58N 28°08' W 015°25'0 0.0
2017-May-09 01:19N 28°08' W 015°25'0 0.0
2017-May-09 00:49N 28°08' W 015°25'0 0.0
2017-May-09 00:19N 28°08' W 015°25'0 0.0
2017-May-08 23:49N 28°08' W 015°25'0 0.0
2017-May-08 23:19N 28°08' W 015°26'0 0.0
2017-May-08 22:52N 28°08' W 015°25'0 0.0
2017-May-08 22:22N 28°08' W 015°25'0 0.0
2017-May-08 21:52N 28°08' W 015°25'0 0.0
2017-May-08 21:19N 28°08' W 015°25'0 0.0
2017-May-08 20:52N 28°08' W 015°25'0 0.0
2017-May-08 20:22N 28°08' W 015°25'0 0.0
2017-May-08 19:55N 28°08' W 015°25'0 0.0
2017-May-08 19:25N 28°08' W 015°26'0 0.0
2017-May-08 18:55N 28°08' W 015°25'0 0.0
2017-May-08 18:25N 28°08' W 015°25'0 0.0
2017-May-08 17:55N 28°08' W 015°26'0 0.0
2017-May-08 17:28N 28°08' W 015°25'0 0.0
2017-May-08 16:58N 28°08' W 015°25'0 0.0
2017-May-08 16:28N 28°08' W 015°25'0 0.0
2017-May-08 15:58N 28°08' W 015°25'0 0.0
2017-May-08 15:13N 28°08' W 015°25'0 0.0
2017-May-08 14:55N 28°08' W 015°25'0 0.0
2017-May-08 13:55N 28°08' W 015°25'0 0.0
2017-May-08 13:28N 28°08' W 015°25'0 0.0
2017-May-08 12:58N 28°08' W 015°25'0 0.0
2017-May-08 12:28N 28°08' W 015°25'0 0.0
2017-May-08 11:58N 28°08' W 015°25'0 0.0
2017-May-08 11:31N 28°08' W 015°25'0 0.0
2017-May-08 11:01N 28°08' W 015°25'0 0.0
2017-May-08 10:31N 28°08' W 015°26'0 0.0
2017-May-08 10:01N 28°08' W 015°26'0 0.0
2017-May-08 09:30N 28°08' W 015°25'0 0.0
2017-May-08 09:00N 28°08' W 015°25'0 0.0
2017-May-08 08:30N 28°08' W 015°26'0 0.0
2017-May-08 08:00N 28°08' W 015°25'7 0.5
2017-May-07 19:05N 28°12' W 015°19'1 8.9
2017-May-07 18:57N 28°13' W 015°19'9 9.0
2017-May-07 17:54N 28°20' W 015°12'7 8.6
2017-May-07 17:06N 28°26' W 015°08'12 8.3
2017-May-07 15:39N 28°36' W 015°01'2 8.4
2017-May-07 15:24N 28°38' W 014°59'96 5.2
2017-May-06 20:58N 29°24' W 013°23'  
2017-May-02 19:48N 34°45' W 010°20'15 8.7
2017-May-02 18:02N 34°60' W 010°15'0 9.1
2017-May-02 18:01N 35°00' W 010°15'17 9.2
2017-May-02 16:12N 35°16' W 010°08'10 9.5
2017-May-02 15:10N 35°25' W 010°04'2 9.7
2017-May-02 14:58N 35°27' W 010°03'10 8.8
2017-May-02 13:51N 35°36' W 010°00'3 7.9
2017-May-02 13:30N 35°39' W 009°59'10 8.0
2017-May-02 12:15N 35°49' W 009°56'2 8.1
2017-May-02 12:01N 35°50' W 009°55'4 8.0
2017-May-02 11:27N 35°55' W 009°54'3 7.5
2017-May-02 11:00N 35°58' W 009°53'6 7.2
2017-May-02 10:09N 36°04' W 009°51'4 7.5
2017-May-02 09:35N 36°08' W 009°51'1 7.9
2017-May-02 09:30N 36°09' W 009°51'4 8.2
2017-May-02 09:00N 36°13' W 009°51'4 7.9
2017-May-02 08:30N 36°17' W 009°51'4 8.3
2017-May-02 08:00N 36°21' W 009°51'4 8.6
2017-May-02 07:30N 36°25' W 009°52'4 8.4
2017-May-02 06:58N 36°30' W 009°53'4 8.4
2017-May-02 06:29N 36°34' W 009°54'4 8.5
2017-May-02 06:00N 36°38' W 009°55'4 8.5
2017-May-02 05:29N 36°42' W 009°56'4 8.1
2017-May-02 05:00N 36°46' W 009°57'4 8.2
2017-May-02 04:30N 36°50' W 009°58'5 7.7
2017-May-02 03:54N 36°54' W 009°59'14 6.6
2017-May-02 01:43N 37°03' W 009°45'30 7.3
2017-May-01 21:34N 37°22' W 009°15'1 7.9
2017-May-01 21:30N 37°23' W 009°15'4 8.0
2017-May-01 21:01N 37°26' W 009°12'4 7.9
2017-May-01 20:30N 37°29' W 009°09'4 8.1
2017-May-01 20:00N 37°33' W 009°06'4 8.4
2017-May-01 19:31N 37°36' W 009°04'5 9.4
2017-May-01 19:01N 37°40' W 008°60'5 9.9
2017-May-01 18:30N 37°44' W 008°56'5 9.1
2017-May-01 18:00N 37°48' W 008°53'1 2.3
2017-May-01 17:31N 37°49' W 008°52'1 1.9
2017-May-01 17:00N 37°48' W 008°51'2 4.4
2017-May-01 16:31N 37°50' W 008°49'3 6.9
2017-May-01 16:01N 37°54' W 008°49'3 5.5
2017-May-01 15:31N 37°55' W 008°52'1 2.5
2017-May-01 15:01N 37°57' W 008°52'0 0.3
2017-May-01 13:59N 37°57' W 008°52'0 0.0
2017-May-01 13:29N 37°57' W 008°52'0 0.0
2017-May-01 12:59N 37°57' W 008°52'0 0.0
2017-May-01 12:29N 37°57' W 008°52'0 0.0
2017-May-01 11:59N 37°57' W 008°52'0 0.0
2017-May-01 11:29N 37°57' W 008°52'0 0.0
2017-May-01 10:56N 37°57' W 008°52'0 0.0
2017-May-01 10:29N 37°57' W 008°52'0 0.0
2017-May-01 09:59N 37°57' W 008°52'0 0.0
2017-May-01 09:29N 37°57' W 008°52'0 0.0
2017-May-01 08:59N 37°57' W 008°52'0 0.0
2017-May-01 08:26N 37°57' W 008°52'0 0.0
2017-May-01 07:59N 37°57' W 008°52'0 0.0
2017-May-01 07:29N 37°57' W 008°52'0 0.0
2017-May-01 06:59N 37°57' W 008°52'0 0.0
2017-May-01 06:29N 37°57' W 008°52'0 0.0
2017-May-01 05:59N 37°57' W 008°52'0 0.0
2017-May-01 05:29N 37°57' W 008°52'0 0.0
2017-May-01 04:59N 37°57' W 008°52'0 0.0
2017-May-01 04:29N 37°57' W 008°52'0 0.0
2017-May-01 03:59N 37°57' W 008°52'0 0.0
2017-May-01 03:29N 37°57' W 008°52'0 0.0
2017-May-01 02:59N 37°57' W 008°52'0 0.0
2017-May-01 02:29N 37°57' W 008°52'0 0.0
2017-May-01 01:59N 37°57' W 008°52'0 0.0
2017-May-01 01:29N 37°57' W 008°52'0 0.0
2017-May-01 00:59N 37°57' W 008°52'0 0.0
2017-May-01 00:29N 37°57' W 008°52'0 0.0
2017-Apr-30 23:59N 37°57' W 008°52'0 0.0
2017-Apr-30 23:29N 37°57' W 008°52'0 0.0
2017-Apr-30 22:59N 37°57' W 008°52'0 0.0
2017-Apr-30 22:29N 37°57' W 008°52'0 0.0
2017-Apr-30 21:59N 37°57' W 008°52'0 0.0
2017-Apr-30 21:29N 37°57' W 008°52'0 0.0
2017-Apr-30 20:59N 37°57' W 008°52'0 0.0
2017-Apr-30 20:29N 37°57' W 008°52'0 0.0
2017-Apr-30 19:59N 37°57' W 008°52'0 0.0
2017-Apr-30 19:29N 37°57' W 008°52'0 0.0
2017-Apr-30 18:59N 37°57' W 008°52'0 0.0
2017-Apr-30 18:29N 37°57' W 008°52'0 0.0
2017-Apr-30 17:59N 37°57' W 008°52'  
Track history (hours):
 
Tides and Currents Weather Stations Pressure Air Temp Water Temp Dewpoint Dewpoint Depression Visibility Wind Speed Wind Dir Waves Ship Positions

Wylde Swan

Last reported at 2017-May-10 17:45 UTC. Time now 2017-May-23 09:00 UTC.
Position N 27°50' W 015°22'.
Warning: this ship's position is 12 days out of date.

Length 45 m; draft 3.3 m.

Type: Sailing vessel. MMSI: 244074000.

Date/timePositionNaut miles runAvg speedWind from/ knotsBaromVisibWave heightAir tempDewpointWater temp
2017-May-10 17:45N 27°50' W 015°22'2 6.7
2017-May-10 17:30N 27°51' W 015°21'3 6.5
2017-May-10 17:00N 27°54' W 015°20'3 6.4
2017-May-10 16:30N 27°58' W 015°20'3 5.6
2017-May-10 16:00N 28°00' W 015°22'3 5.7
2017-May-10 15:30N 28°03' W 015°23'3 5.3
2017-May-10 15:00N 28°05' W 015°24'3 2.6
2017-May-10 13:55N 28°08' W 015°25'0 0.0
2017-May-10 13:22N 28°08' W 015°25'0 0.0
2017-May-10 12:52N 28°08' W 015°25'0 0.0
2017-May-10 12:28N 28°08' W 015°25'0 0.0
2017-May-10 11:58N 28°08' W 015°25'0 0.0
2017-May-10 11:28N 28°08' W 015°25'0 0.0
2017-May-10 10:58N 28°08' W 015°25'0 0.0
2017-May-10 10:28N 28°08' W 015°25'0 0.0
2017-May-10 09:58N 28°08' W 015°25'0 0.0
2017-May-10 09:28N 28°08' W 015°25'0 0.0
2017-May-10 08:58N 28°08' W 015°25'0 0.0
2017-May-09 20:58N 28°08' W 015°25'0 0.0
2017-May-09 20:28N 28°08' W 015°25'0 0.0
2017-May-09 19:58N 28°08' W 015°25'0 0.0
2017-May-09 19:28N 28°08' W 015°25'0 0.0
2017-May-09 18:58N 28°08' W 015°25'0 0.0
2017-May-09 18:28N 28°08' W 015°25'0 0.0
2017-May-09 17:58N 28°08' W 015°25'0 0.0
2017-May-09 17:28N 28°08' W 015°25'0 0.0
2017-May-09 16:46N 28°08' W 015°26'0 0.0
2017-May-09 16:28N 28°08' W 015°25'0 0.0
2017-May-09 15:58N 28°08' W 015°25'0 0.0
2017-May-09 15:28N 28°08' W 015°25'0 0.0
2017-May-09 14:49N 28°08' W 015°25'0 0.0
2017-May-09 13:34N 28°08' W 015°25'0 0.0
2017-May-09 13:22N 28°08' W 015°25'0 0.0
2017-May-09 12:52N 28°08' W 015°25'0 0.0
2017-May-09 12:22N 28°08' W 015°25'0 0.0
2017-May-09 11:52N 28°08' W 015°25'0 0.0
2017-May-09 11:22N 28°08' W 015°25'0 0.0
2017-May-09 10:55N 28°08' W 015°25'0 0.0
2017-May-09 10:22N 28°08' W 015°25'0 0.0
2017-May-09 09:55N 28°08' W 015°26'0 0.0
2017-May-09 09:25N 28°08' W 015°26'0 0.0
2017-May-09 08:55N 28°08' W 015°25'0 0.0
2017-May-09 08:25N 28°08' W 015°25'0 0.0
2017-May-09 07:58N 28°08' W 015°25'0 0.0
2017-May-09 07:28N 28°08' W 015°25'0 0.0
2017-May-09 06:58N 28°08' W 015°25'0 0.0
2017-May-09 06:25N 28°08' W 015°25'0 0.0
2017-May-09 05:58N 28°08' W 015°25'0 0.0
2017-May-09 05:25N 28°08' W 015°25'0 0.0
2017-May-09 04:58N 28°08' W 015°25'0 0.0
2017-May-09 04:28N 28°08' W 015°25'0 0.0
2017-May-09 03:58N 28°08' W 015°25'0 0.0
2017-May-09 03:28N 28°08' W 015°25'0 0.0
2017-May-09 02:46N 28°08' W 015°25'0 0.0
2017-May-09 02:28N 28°08' W 015°25'0 0.0
2017-May-09 01:58N 28°08' W 015°25'0 0.0
2017-May-09 01:19N 28°08' W 015°25'0 0.0
2017-May-09 00:49N 28°08' W 015°25'0 0.0
2017-May-09 00:19N 28°08' W 015°25'0 0.0
2017-May-08 23:49N 28°08' W 015°25'0 0.0
2017-May-08 23:19N 28°08' W 015°26'0 0.0
2017-May-08 22:52N 28°08' W 015°25'0 0.0
2017-May-08 22:22N 28°08' W 015°25'0 0.0
2017-May-08 21:52N 28°08' W 015°25'0 0.0
2017-May-08 21:19N 28°08' W 015°25'0 0.0
2017-May-08 20:52N 28°08' W 015°25'0 0.0
2017-May-08 20:22N 28°08' W 015°25'0 0.0
2017-May-08 19:55N 28°08' W 015°25'0 0.0
2017-May-08 19:25N 28°08' W 015°26'0 0.0
2017-May-08 18:55N 28°08' W 015°25'0 0.0
2017-May-08 18:25N 28°08' W 015°25'0 0.0
2017-May-08 17:55N 28°08' W 015°26'0 0.0
2017-May-08 17:28N 28°08' W 015°25'0 0.0
2017-May-08 16:58N 28°08' W 015°25'0 0.0
2017-May-08 16:28N 28°08' W 015°25'0 0.0
2017-May-08 15:58N 28°08' W 015°25'0 0.0
2017-May-08 15:13N 28°08' W 015°25'0 0.0
2017-May-08 14:55N 28°08' W 015°25'0 0.0
2017-May-08 13:55N 28°08' W 015°25'0 0.0
2017-May-08 13:28N 28°08' W 015°25'0 0.0
2017-May-08 12:58N 28°08' W 015°25'0 0.0
2017-May-08 12:28N 28°08' W 015°25'0 0.0
2017-May-08 11:58N 28°08' W 015°25'0 0.0
2017-May-08 11:31N 28°08' W 015°25'0 0.0
2017-May-08 11:01N 28°08' W 015°25'0 0.0
2017-May-08 10:31N 28°08' W 015°26'0 0.0
2017-May-08 10:01N 28°08' W 015°26'0 0.0
2017-May-08 09:30N 28°08' W 015°25'0 0.0
2017-May-08 09:00N 28°08' W 015°25'0 0.0
2017-May-08 08:30N 28°08' W 015°26'0 0.0
2017-May-08 08:00N 28°08' W 015°25'7 0.5
2017-May-07 19:05N 28°12' W 015°19'1 8.9
2017-May-07 18:57N 28°13' W 015°19'9 9.0
2017-May-07 17:54N 28°20' W 015°12'7 8.6
2017-May-07 17:06N 28°26' W 015°08'12 8.3
2017-May-07 15:39N 28°36' W 015°01'2 8.4
2017-May-07 15:24N 28°38' W 014°59'96 5.2
2017-May-06 20:58N 29°24' W 013°23'  
2017-May-02 19:48N 34°45' W 010°20'15 8.7
2017-May-02 18:02N 34°60' W 010°15'0 9.1
2017-May-02 18:01N 35°00' W 010°15'17 9.2
2017-May-02 16:12N 35°16' W 010°08'10 9.5
2017-May-02 15:10N 35°25' W 010°04'2 9.7
2017-May-02 14:58N 35°27' W 010°03'10 8.8
2017-May-02 13:51N 35°36' W 010°00'3 7.9
2017-May-02 13:30N 35°39' W 009°59'10 8.0
2017-May-02 12:15N 35°49' W 009°56'2 8.1
2017-May-02 12:01N 35°50' W 009°55'4 8.0
2017-May-02 11:27N 35°55' W 009°54'3 7.5
2017-May-02 11:00N 35°58' W 009°53'6 7.2
2017-May-02 10:09N 36°04' W 009°51'4 7.5
2017-May-02 09:35N 36°08' W 009°51'1 7.9
2017-May-02 09:30N 36°09' W 009°51'4 8.2
2017-May-02 09:00N 36°13' W 009°51'4 7.9
2017-May-02 08:30N 36°17' W 009°51'4 8.3
2017-May-02 08:00N 36°21' W 009°51'4 8.6
2017-May-02 07:30N 36°25' W 009°52'4 8.4
2017-May-02 06:58N 36°30' W 009°53'4 8.4
2017-May-02 06:29N 36°34' W 009°54'4 8.5
2017-May-02 06:00N 36°38' W 009°55'4 8.5
2017-May-02 05:29N 36°42' W 009°56'4 8.1
2017-May-02 05:00N 36°46' W 009°57'4 8.2
2017-May-02 04:30N 36°50' W 009°58'5 7.7
2017-May-02 03:54N 36°54' W 009°59'14 6.6
2017-May-02 01:43N 37°03' W 009°45'30 7.3
2017-May-01 21:34N 37°22' W 009°15'1 7.9
2017-May-01 21:30N 37°23' W 009°15'4 8.0
2017-May-01 21:01N 37°26' W 009°12'4 7.9
2017-May-01 20:30N 37°29' W 009°09'4 8.1
2017-May-01 20:00N 37°33' W 009°06'4 8.4
2017-May-01 19:31N 37°36' W 009°04'5 9.4
2017-May-01 19:01N 37°40' W 008°60'5 9.9
2017-May-01 18:30N 37°44' W 008°56'5 9.1
2017-May-01 18:00N 37°48' W 008°53'1 2.3
2017-May-01 17:31N 37°49' W 008°52'1 1.9
2017-May-01 17:00N 37°48' W 008°51'2 4.4
2017-May-01 16:31N 37°50' W 008°49'3 6.9
2017-May-01 16:01N 37°54' W 008°49'3 5.5
2017-May-01 15:31N 37°55' W 008°52'1 2.5
2017-May-01 15:01N 37°57' W 008°52'0 0.3
2017-May-01 13:59N 37°57' W 008°52'0 0.0
2017-May-01 13:29N 37°57' W 008°52'0 0.0
2017-May-01 12:59N 37°57' W 008°52'0 0.0
2017-May-01 12:29N 37°57' W 008°52'0 0.0
2017-May-01 11:59N 37°57' W 008°52'0 0.0
2017-May-01 11:29N 37°57' W 008°52'0 0.0
2017-May-01 10:56N 37°57' W 008°52'0 0.0
2017-May-01 10:29N 37°57' W 008°52'0 0.0
2017-May-01 09:59N 37°57' W 008°52'0 0.0
2017-May-01 09:29N 37°57' W 008°52'0 0.0
2017-May-01 08:59N 37°57' W 008°52'0 0.0
2017-May-01 08:26N 37°57' W 008°52'0 0.0
2017-May-01 07:59N 37°57' W 008°52'0 0.0
2017-May-01 07:29N 37°57' W 008°52'0 0.0
2017-May-01 06:59N 37°57' W 008°52'0 0.0
2017-May-01 06:29N 37°57' W 008°52'0 0.0
2017-May-01 05:59N 37°57' W 008°52'0 0.0
2017-May-01 05:29N 37°57' W 008°52'0 0.0
2017-May-01 04:59N 37°57' W 008°52'0 0.0
2017-May-01 04:29N 37°57' W 008°52'0 0.0
2017-May-01 03:59N 37°57' W 008°52'0 0.0
2017-May-01 03:29N 37°57' W 008°52'0 0.0
2017-May-01 02:59N 37°57' W 008°52'0 0.0
2017-May-01 02:29N 37°57' W 008°52'0 0.0
2017-May-01 01:59N 37°57' W 008°52'0 0.0
2017-May-01 01:29N 37°57' W 008°52'0 0.0
2017-May-01 00:59N 37°57' W 008°52'0 0.0
2017-May-01 00:29N 37°57' W 008°52'0 0.0
2017-Apr-30 23:59N 37°57' W 008°52'0 0.0
2017-Apr-30 23:29N 37°57' W 008°52'0 0.0
2017-Apr-30 22:59N 37°57' W 008°52'0 0.0
2017-Apr-30 22:29N 37°57' W 008°52'0 0.0
2017-Apr-30 21:59N 37°57' W 008°52'0 0.0
2017-Apr-30 21:29N 37°57' W 008°52'0 0.0
2017-Apr-30 20:59N 37°57' W 008°52'0 0.0
2017-Apr-30 20:29N 37°57' W 008°52'0 0.0
2017-Apr-30 19:59N 37°57' W 008°52'0 0.0
2017-Apr-30 19:29N 37°57' W 008°52'0 0.0
2017-Apr-30 18:59N 37°57' W 008°52'0 0.0
2017-Apr-30 18:29N 37°57' W 008°52'0 0.0
2017-Apr-30 17:59N 37°57' W 008°52'  

Dump ship's entire track history